Time;durP1;ratioP1;P1;durP2;ratioP2;P2;SDS_P1;SDS_P2;PMS_P1;PMS_P2;Temp;Humidity;BMP_temperature;BMP_pressure;BME280_temperature;BME280_humidity;BME280_pressure;Samples;Min_cycle;Max_cycle;Signal;HPM_P1;HPM_P2
2021/01/20 00:01:28;;;;;;;14.77;9.02;;;103.10;1740.80;;;;;;4931871;29;20071;-70
2021/01/20 00:03:54;;;;;;;18.00;10.38;;;103.20;1740.80;;;;;;4936862;29;20155;-71
2021/01/20 00:06:20;;;;;;;15.80;9.70;;;103.20;1715.20;;;;;;4937187;29;20210;-72
2021/01/20 00:08:46;;;;;;;17.00;10.57;;;103.30;1715.20;;;;;;4936661;29;20111;-72
2021/01/20 00:11:12;;;;;;;20.95;11.98;;;103.30;1715.20;;;;;;4931326;29;20035;-71
2021/01/20 00:13:37;;;;;;;21.85;12.15;;;103.30;1715.20;;;;;;4936149;29;20067;-71
2021/01/20 00:16:03;;;;;;;19.77;10.82;;;103.30;1715.20;;;;;;4937303;29;20481;-73
2021/01/20 00:18:29;;;;;;;16.58;10.05;;;103.30;1689.60;;;;;;4937057;29;20032;-71
2021/01/20 00:20:55;;;;;;;17.52;10.93;;;103.30;1715.20;;;;;;4936867;29;20071;-74
2021/01/20 00:23:21;;;;;;;14.90;9.85;;;103.30;1715.20;;;;;;4936515;29;20040;-71
2021/01/20 00:25:47;;;;;;;14.90;8.55;;;103.30;1715.20;;;;;;4936934;29;20056;-72
2021/01/20 00:28:12;;;;;;;16.75;9.45;;;103.30;1715.20;;;;;;4937470;29;20032;-72
2021/01/20 00:30:38;;;;;;;14.65;9.30;;;128.00;1715.20;;;;;;4938231;29;20039;-72
2021/01/20 00:33:04;;;;;;;13.05;8.15;;;103.30;1689.60;;;;;;4936480;29;20363;-71
2021/01/20 00:35:30;;;;;;;16.60;9.48;;;103.30;1715.20;;;;;;4937138;29;20036;-72
2021/01/20 00:37:56;;;;;;;14.65;9.43;;;103.30;1715.20;;;;;;4936520;29;20496;-72
2021/01/20 00:40:22;;;;;;;14.77;8.52;;;128.00;1715.20;;;;;;4936004;29;20036;-72
2021/01/20 00:42:47;;;;;;;12.45;7.97;;;128.00;1715.20;;;;;;4936761;29;20023;-71
2021/01/20 00:45:13;;;;;;;16.10;8.95;;;128.00;1740.80;;;;;;4936693;29;20122;-72
2021/01/20 00:47:39;;;;;;;14.98;9.07;;;128.00;1715.20;;;;;;4936807;29;20036;-71
2021/01/20 00:50:05;;;;;;;12.13;8.02;;;128.00;1715.20;;;;;;4940244;29;20520;-71
2021/01/20 00:52:31;;;;;;;16.13;9.52;;;128.00;1715.20;;;;;;4930550;29;20559;-71
2021/01/20 00:54:56;;;;;;;13.30;8.18;;;128.00;1715.20;;;;;;4936688;29;20155;-71
2021/01/20 00:57:22;;;;;;;14.38;8.13;;;128.00;1715.20;;;;;;4936980;29;20050;-72
2021/01/20 00:59:48;;;;;;;14.48;8.30;;;128.00;1715.20;;;;;;4936343;29;20059;-73
2021/01/20 01:02:14;;;;;;;21.98;9.35;;;128.00;1715.20;;;;;;4932921;29;20036;-72
2021/01/20 01:04:40;;;;;;;11.70;7.93;;;128.00;1740.80;;;;;;4936663;29;20142;-71
2021/01/20 01:07:05;;;;;;;19.20;10.80;;;128.00;1715.20;;;;;;4936342;29;20024;-72
2021/01/20 01:09:31;;;;;;;14.52;8.95;;;128.00;1715.20;;;;;;4935562;29;20162;-71
2021/01/20 01:11:57;;;;;;;12.88;8.65;;;128.00;1740.80;;;;;;4932223;29;20035;-72
2021/01/20 01:14:23;;;;;;;13.57;9.13;;;128.00;1715.20;;;;;;4935892;29;20481;-72
2021/01/20 01:16:48;;;;;;;13.85;8.50;;;128.10;1715.20;;;;;;4915524;29;20047;-72
2021/01/20 01:19:14;;;;;;;12.90;7.70;;;128.10;1715.20;;;;;;4931042;29;20052;-73
2021/01/20 01:21:42;;;;;;;18.85;10.95;;;128.10;1715.20;;;;;;4934471;29;20036;-72
2021/01/20 01:24:07;;;;;;;16.38;8.73;;;128.10;1689.60;;;;;;4938039;29;20088;-71
2021/01/20 01:26:33;;;;;;;12.73;8.07;;;128.10;1715.20;;;;;;4932856;29;20036;-72
2021/01/20 01:28:59;;;;;;;10.85;7.35;;;128.10;1689.60;;;;;;4935558;29;20036;-71
2021/01/20 01:31:24;;;;;;;12.65;8.18;;;128.10;1689.60;;;;;;4935539;29;20028;-72
2021/01/20 01:33:50;;;;;;;14.02;8.30;;;128.10;1715.20;;;;;;4932615;29;20028;-71
2021/01/20 01:36:16;;;;;;;13.55;8.35;;;128.10;1715.20;;;;;;4935984;29;20512;-71
2021/01/20 01:38:42;;;;;;;11.65;7.38;;;128.10;1715.20;;;;;;4935223;29;20409;-72
2021/01/20 01:41:07;;;;;;;14.75;9.38;;;128.10;1715.20;;;;;;4935130;29;20839;-72
2021/01/20 01:43:33;;;;;;;12.98;8.13;;;128.10;1715.20;;;;;;4935329;29;20466;-71
2021/01/20 01:45:59;;;;;;;12.68;7.57;;;128.10;1715.20;;;;;;4935449;29;20028;-71
2021/01/20 01:48:24;;;;;;;15.35;9.30;;;128.10;1715.20;;;;;;4935071;29;20144;-72
2021/01/20 01:50:50;;;;;;;15.45;8.82;;;128.10;1715.20;;;;;;4935444;29;20032;-72
2021/01/20 01:53:16;;;;;;;13.55;8.73;;;128.10;1715.20;;;;;;4935671;29;20047;-72
2021/01/20 01:55:42;;;;;;;15.63;7.70;;;128.10;1715.20;;;;;;5105049;23;20063;-71
2021/01/20 01:58:08;;;;;;;12.80;8.50;;;128.10;1715.20;;;;;;4934597;29;20067;-72
2021/01/20 02:00:34;;;;;;;13.30;8.35;;;128.10;1715.20;;;;;;4933853;29;20098;-70
2021/01/20 02:03:01;;;;;;;11.65;7.38;;;128.10;1740.80;;;;;;4934480;29;20055;-72
2021/01/20 02:05:27;;;;;;;14.38;8.07;;;128.10;1715.20;;;;;;4931264;29;20031;-72
2021/01/20 02:07:55;;;;;;;13.00;8.15;;;128.10;1715.20;;;;;;4935461;29;20024;-71
2021/01/20 02:10:22;;;;;;;10.80;6.53;;;128.10;1740.80;;;;;;4934117;29;20046;-71
2021/01/20 02:13:18;;;;;;;9.20;6.95;;;128.10;1715.20;;;;;;4934428;29;20019;-73
2021/01/20 02:16:12;;;;;;;11.57;6.55;;;128.10;1715.20;;;;;;4934656;29;20027;-73
2021/01/20 02:18:38;;;;;;;10.68;7.32;;;128.10;1740.80;;;;;;4924497;29;20043;-72
2021/01/20 02:21:32;;;;;;;10.20;7.13;;;128.10;1766.40;;;;;;4934493;29;20096;-71
2021/01/20 02:24:01;;;;;;;11.70;8.07;;;128.10;1740.80;;;;;;4927793;29;20385;-72
2021/01/20 02:26:44;;;;;;;11.98;7.13;;;128.10;1740.80;;;;;;4934881;29;20042;-71
2021/01/20 02:29:33;;;;;;;10.90;7.40;;;128.10;1740.80;;;;;;4929974;29;20118;-71
2021/01/20 02:32:01;;;;;;;10.52;7.15;;;128.10;1715.20;;;;;;4934644;29;20059;-72
2021/01/20 02:34:28;;;;;;;12.20;7.60;;;128.10;1715.20;;;;;;4934754;29;20119;-73
2021/01/20 02:36:55;;;;;;;12.93;8.65;;;128.10;1740.80;;;;;;4917481;29;20024;-72
2021/01/20 02:39:22;;;;;;;11.75;7.25;;;128.10;1740.80;;;;;;4934620;29;20035;-70
2021/01/20 02:41:47;;;;;;;13.40;7.20;;;128.10;1740.80;;;;;;4934233;29;20024;-71
2021/01/20 02:44:13;;;;;;;11.98;7.50;;;128.10;1740.80;;;;;;4934204;29;20036;-72
2021/01/20 02:46:41;;;;;;;13.00;7.60;;;128.10;1740.80;;;;;;4934292;29;20031;-71
2021/01/20 02:49:07;;;;;;;12.85;7.60;;;128.10;1740.80;;;;;;4933840;29;20028;-71
2021/01/20 02:51:37;;;;;;;13.68;7.30;;;128.10;1740.80;;;;;;4935765;29;20051;-72
2021/01/20 02:54:04;;;;;;;12.82;7.18;;;128.10;1766.40;;;;;;4930429;29;20509;-71
2021/01/20 02:56:32;;;;;;;9.32;6.63;;;128.10;1740.80;;;;;;4917124;29;20135;-71
2021/01/20 02:59:02;;;;;;;10.82;6.95;;;128.10;1766.40;;;;;;4932431;29;20482;-71
2021/01/20 03:01:32;;;;;;;11.63;7.22;;;128.10;1740.80;;;;;;4934617;29;20032;-71
2021/01/20 03:04:00;;;;;;;11.25;7.30;;;128.10;1740.80;;;;;;4935106;29;20028;-76
2021/01/20 03:06:27;;;;;;;11.23;6.93;;;128.10;1766.40;;;;;;4934476;29;20572;-71
2021/01/20 03:08:54;;;;;;;10.63;7.28;;;128.10;1766.40;;;;;;4934459;29;20043;-71
2021/01/20 03:11:20;;;;;;;10.43;7.47;;;128.10;1766.40;;;;;;4933808;29;20028;-72
2021/01/20 03:13:47;;;;;;;10.27;6.65;;;128.10;1766.40;;;;;;4933899;29;20028;-71
2021/01/20 03:16:14;;;;;;;12.02;6.65;;;103.20;1740.80;;;;;;4934549;29;20063;-71
2021/01/20 03:18:40;;;;;;;11.05;7.88;;;128.10;1766.40;;;;;;4934330;29;20031;-70
2021/01/20 03:21:06;;;;;;;14.98;8.25;;;128.10;1792.00;;;;;;4933905;29;20102;-71
2021/01/20 03:23:31;;;;;;;16.38;9.82;;;128.10;1792.00;;;;;;4937016;29;20078;-71
2021/01/20 03:25:57;;;;;;;14.90;9.23;;;128.10;1792.00;;;;;;4920817;29;20525;-73
2021/01/20 03:28:26;;;;;;;10.15;7.30;;;128.10;1792.00;;;;;;4935450;29;20044;-70
2021/01/20 03:30:52;;;;;;;12.10;7.05;;;128.10;1792.00;;;;;;4937376;29;20051;-71
2021/01/20 03:33:18;;;;;;;11.43;8.02;;;128.10;1792.00;;;;;;4938159;29;20028;-71
2021/01/20 03:35:43;;;;;;;9.50;6.97;;;128.10;1792.00;;;;;;4937816;29;20490;-71
2021/01/20 03:38:10;;;;;;;7.10;5.00;;;128.10;1792.00;;;;;;4937458;29;20024;-71
2021/01/20 03:40:36;;;;;;;8.43;5.90;;;128.20;1792.00;;;;;;4937041;29;20550;-73
2021/01/20 03:43:02;;;;;;;7.82;5.03;;;128.20;1817.60;;;;;;4937736;29;20104;-71
2021/01/20 03:45:28;;;;;;;9.15;5.25;;;128.30;1792.00;;;;;;4937488;29;20024;-73
2021/01/20 03:47:54;;;;;;;9.05;5.25;;;128.30;1792.00;;;;;;4938165;29;20035;-71
2021/01/20 03:50:19;;;;;;;7.50;4.60;;;128.40;1792.00;;;;;;4938157;29;20044;-72
2021/01/20 03:52:45;;;;;;;8.07;4.55;;;128.50;1792.00;;;;;;4938089;29;20059;-71
2021/01/20 03:55:11;;;;;;;5.57;4.13;;;128.60;1792.00;;;;;;4935446;29;20517;-72
2021/01/20 03:57:37;;;;;;;6.05;4.53;;;128.70;1792.00;;;;;;4937464;29;20027;-73
2021/01/20 04:00:04;;;;;;;7.07;4.38;;;128.80;1766.40;;;;;;4937460;29;20031;-71
2021/01/20 04:02:30;;;;;;;5.93;4.00;;;128.80;1792.00;;;;;;4935721;29;20036;-71
2021/01/20 04:04:56;;;;;;;7.40;4.20;;;128.90;1766.40;;;;;;4937616;29;20040;-72
2021/01/20 04:07:21;;;;;;;6.70;4.22;;;128.90;1792.00;;;;;;4938928;29;20027;-72
2021/01/20 04:09:47;;;;;;;5.63;3.75;;;128.90;1766.40;;;;;;4937369;29;20038;-71
2021/01/20 04:12:13;;;;;;;6.03;3.75;;;153.60;1766.40;;;;;;4937424;29;20107;-71
2021/01/20 04:14:39;;;;;;;7.25;4.18;;;153.60;1766.40;;;;;;4936490;29;20509;-72
2021/01/20 04:17:04;;;;;;;6.03;4.13;;;153.60;1766.40;;;;;;4937847;29;20454;-72
2021/01/20 04:19:30;;;;;;;5.65;3.90;;;153.60;1766.40;;;;;;4931529;29;20031;-71
2021/01/20 04:21:56;;;;;;;5.75;3.78;;;153.60;1766.40;;;;;;4936640;29;20028;-71
2021/01/20 04:24:21;;;;;;;6.40;4.10;;;153.60;1792.00;;;;;;4931817;29;20036;-72
2021/01/20 04:26:47;;;;;;;6.35;3.80;;;153.60;1792.00;;;;;;4934458;29;20364;-72
2021/01/20 04:29:13;;;;;;;9.07;3.83;;;153.60;1766.40;;;;;;4936801;29;20111;-72
2021/01/20 04:31:41;;;;;;;5.03;3.53;;;153.60;1766.40;;;;;;4929306;29;20028;-72
2021/01/20 04:34:07;;;;;;;5.22;3.95;;;153.60;1766.40;;;;;;4936254;29;20032;-71
2021/01/20 04:36:33;;;;;;;6.45;3.97;;;153.60;1766.40;;;;;;4936667;29;20106;-70
2021/01/20 04:38:59;;;;;;;6.90;4.07;;;153.60;1766.40;;;;;;4922588;29;20043;-71
2021/01/20 04:41:26;;;;;;;5.53;3.95;;;153.60;1766.40;;;;;;4936101;29;20035;-72
2021/01/20 04:43:52;;;;;;;7.85;4.10;;;153.60;1766.40;;;;;;4931491;29;20544;-71
2021/01/20 04:46:19;;;;;;;6.43;4.00;;;153.60;1792.00;;;;;;4936960;29;20102;-71
2021/01/20 04:48:48;;;;;;;9.10;5.05;;;153.70;1792.00;;;;;;4936724;29;20128;-71
2021/01/20 04:51:18;;;;;;;8.02;4.60;;;153.70;1792.00;;;;;;4935287;29;20044;-71
2021/01/20 04:53:45;;;;;;;10.57;4.78;;;153.70;1792.00;;;;;;4934817;29;20118;-73
2021/01/20 04:56:12;;;;;;;8.23;4.15;;;153.70;1792.00;;;;;;4935898;29;20106;-73
2021/01/20 04:58:38;;;;;;;6.32;4.45;;;153.70;1792.00;;;;;;4934957;29;20470;-71
2021/01/20 05:01:04;;;;;;;6.57;4.30;;;153.70;1792.00;;;;;;4925302;29;20047;-73
2021/01/20 05:03:30;;;;;;;5.25;3.92;;;153.70;1817.60;;;;;;4929976;29;20031;-72
2021/01/20 05:05:56;;;;;;;7.80;4.43;;;153.70;1817.60;;;;;;4934113;29;20032;-72
2021/01/20 05:08:22;;;;;;;5.90;4.03;;;153.70;1817.60;;;;;;4934272;29;20478;-72
2021/01/20 05:10:51;;;;;;;42.65;25.00;;;153.80;1792.00;;;;;;4934505;29;20036;-72
2021/01/20 05:13:23;;;;;;;18.65;12.73;;;153.80;1792.00;;;;;;4932881;29;20145;-71
2021/01/20 05:15:49;;;;;;;11.32;7.50;;;153.80;1817.60;;;;;;4936526;29;20028;-71
2021/01/20 05:18:15;;;;;;;8.32;6.70;;;153.80;1817.60;;;;;;4935264;29;20367;-71
2021/01/20 05:20:41;;;;;;;7.45;5.03;;;153.80;1843.20;;;;;;4931035;29;20035;-71
2021/01/20 05:23:08;;;;;;;8.35;4.15;;;153.80;1817.60;;;;;;4936032;29;20184;-72
2021/01/20 05:25:44;;;;;;;6.07;4.40;;;153.80;1843.20;;;;;;4933024;29;20036;-71
2021/01/20 05:28:23;;;;;;;5.00;3.80;;;153.90;1843.20;;;;;;4931890;29;20028;-72
2021/01/20 05:30:50;;;;;;;7.28;4.85;;;153.90;1843.20;;;;;;4934629;29;20139;-72
2021/01/20 05:33:21;;;;;;;8.27;4.90;;;153.90;1868.80;;;;;;4940960;29;20038;-72
2021/01/20 05:36:10;;;;;;;6.82;4.60;;;153.90;1868.80;;;;;;4935308;29;20032;-72
2021/01/20 05:38:36;;;;;;;6.95;5.03;;;153.90;1868.80;;;;;;4935974;29;20034;-72
2021/01/20 05:41:34;;;;;;;7.57;5.15;;;153.90;1868.80;;;;;;4934076;29;20454;-72
2021/01/20 05:44:08;;;;;;;6.72;4.50;;;153.90;1868.80;;;;;;4830347;29;20079;-72
2021/01/20 05:46:35;;;;;;;7.03;4.90;;;154.00;1868.80;;;;;;4829501;29;20066;-73
2021/01/20 05:49:02;;;;;;;6.20;4.22;;;154.00;1868.80;;;;;;4833294;29;20030;-68
2021/01/20 05:51:38;;;;;;;6.78;4.53;;;154.00;1868.80;;;;;;4824854;29;20033;-81
2021/01/20 05:54:05;;;;;;;8.38;4.82;;;154.00;1868.80;;;;;;4796584;29;20076;-71
2021/01/20 05:56:31;;;;;;;5.70;4.10;;;154.00;1868.80;;;;;;4809263;29;20094;-73
2021/01/20 05:59:11;;;;;;;5.72;4.10;;;154.00;1868.80;;;;;;4801542;29;20031;-89
2021/01/20 06:01:38;;;;;;;8.52;4.80;;;154.00;1868.80;;;;;;4800896;29;20037;-84
2021/01/20 06:04:13;;;;;;;5.35;4.10;;;154.10;1868.80;;;;;;4798066;29;20105;-72
2021/01/20 06:06:38;;;;;;;10.10;4.53;;;154.10;1868.80;;;;;;4797175;29;20049;-71
2021/01/20 06:09:07;;;;;;;5.95;4.28;;;154.00;1868.80;;;;;;4796184;29;20480;-72
2021/01/20 06:11:33;;;;;;;10.32;4.22;;;154.00;1894.40;;;;;;4798730;29;20197;-72
2021/01/20 06:14:02;;;;;;;6.43;4.55;;;179.80;1894.40;;;;;;4793852;29;20112;-72
2021/01/20 06:16:29;;;;;;;25.23;14.13;;;154.10;1894.40;;;;;;4789734;29;20509;-73
2021/01/20 06:19:03;;;;;;;10.63;6.25;;;154.10;1894.40;;;;;;4818978;29;20493;-73
2021/01/20 06:21:30;;;;;;;17.65;13.80;;;154.10;1894.40;;;;;;4901961;29;20043;-71
2021/01/20 06:24:07;;;;;;;6.53;5.20;;;154.10;1894.40;;;;;;4898361;29;20433;-73
2021/01/20 06:26:39;;;;;;;7.65;5.25;;;154.20;1868.80;;;;;;4898855;29;20107;-72
2021/01/20 06:29:07;;;;;;;7.90;5.15;;;154.20;1894.40;;;;;;4898169;29;20394;-72
2021/01/20 06:31:41;;;;;;;7.32;5.68;;;154.20;1894.40;;;;;;4901427;29;20035;-72
2021/01/20 06:34:07;;;;;;;6.53;5.32;;;154.30;1894.40;;;;;;4902543;29;20039;-72
2021/01/20 06:36:37;;;;;;;9.82;7.97;;;154.30;1894.40;;;;;;4898840;29;20075;-73
2021/01/20 06:39:28;;;;;;;10.32;8.68;;;154.30;1868.80;;;;;;4898370;29;20458;-73
2021/01/20 06:41:55;;;;;;;9.85;7.47;;;154.40;1868.80;;;;;;4894707;29;20036;-72
2021/01/20 06:44:21;;;;;;;11.38;7.70;;;179.50;1894.40;;;;;;4898504;29;20031;-72
2021/01/20 06:46:55;;;;;;;15.25;8.85;;;154.50;1894.40;;;;;;4901031;29;20040;-72
2021/01/20 06:49:25;;;;;;;9.55;6.80;;;179.20;1894.40;;;;;;4896521;29;20050;-72
2021/01/20 06:52:13;;;;;;;9.57;6.78;;;154.50;1894.40;;;;;;4893297;29;20131;-71
2021/01/20 06:54:39;;;;;;;8.48;6.20;;;179.20;1894.40;;;;;;4890616;29;20052;-76
2021/01/20 06:57:25;;;;;;;8.75;5.60;;;154.50;1920.00;;;;;;4895579;29;20039;-75
2021/01/20 07:00:13;;;;;;;6.82;5.00;;;179.20;1894.40;;;;;;4887203;29;20067;-71
2021/01/20 07:03:03;;;;;;;6.22;4.18;;;179.30;1894.40;;;;;;4894421;29;20214;-73
2021/01/20 07:05:36;;;;;;;7.65;4.90;;;179.30;1894.40;;;;;;4895960;29;20552;-72
2021/01/20 07:08:03;;;;;;;7.32;5.10;;;179.40;1868.80;;;;;;4896570;29;20039;-71
2021/01/20 07:10:59;;;;;;;9.82;5.57;;;179.40;1868.80;;;;;;4907754;29;20078;-73
2021/01/20 07:13:33;;;;;;;8.30;6.28;;;179.50;1868.80;;;;;;4895207;29;20038;-72
2021/01/20 07:16:02;;;;;;;8.30;5.20;;;179.50;1868.80;;;;;;4897657;29;20027;-71
2021/01/20 07:18:28;;;;;;;12.45;5.10;;;179.60;1868.80;;;;;;4888728;29;20043;-74
2021/01/20 07:20:54;;;;;;;9.10;6.07;;;179.50;1868.80;;;;;;4889154;29;20032;-74
2021/01/20 07:23:20;;;;;;;14.70;8.60;;;179.70;1843.20;;;;;;4891708;29;20048;-74
2021/01/20 07:25:48;;;;;;;10.25;6.57;;;179.70;1843.20;;;;;;4865530;29;20541;-73
2021/01/20 07:28:14;;;;;;;6.97;5.32;;;179.70;1843.20;;;;;;4893227;29;20071;-82
2021/01/20 07:30:40;;;;;;;7.45;5.13;;;204.90;1843.20;;;;;;4899763;29;20039;-81
2021/01/20 07:33:19;;;;;;;7.30;5.03;;;179.70;1843.20;;;;;;4895889;29;20032;-84
2021/01/20 07:35:46;;;;;;;9.32;5.35;;;179.80;1843.20;;;;;;4897867;29;20040;-82
2021/01/20 07:38:12;;;;;;;7.07;4.70;;;179.90;1817.60;;;;;;4896183;29;20366;-76
2021/01/20 07:40:40;;;;;;;7.65;5.18;;;180.00;1843.20;;;;;;4894762;29;20146;-75
2021/01/20 07:43:06;;;;;;;8.40;5.18;;;180.00;1843.20;;;;;;4881859;29;20154;-76
2021/01/20 07:45:33;;;;;;;9.43;4.55;;;180.10;1843.20;;;;;;4896795;29;20032;-81
2021/01/20 07:48:00;;;;;;;7.30;5.00;;;180.10;1843.20;;;;;;4895776;29;20553;-75
2021/01/20 07:53:20;;;;;;;10.82;5.30;;;204.90;1843.20;;;;;;4879751;23;20098;-74
2021/01/20 07:55:52;;;;;;;6.47;4.65;;;205.00;1868.80;;;;;;4884342;29;20550;-74
2021/01/20 07:58:26;;;;;;;7.97;4.72;;;205.00;1868.80;;;;;;4876157;29;20729;-74
2021/01/20 08:00:52;;;;;;;7.32;4.70;;;205.00;1868.80;;;;;;4874805;29;20028;-74
2021/01/20 08:03:36;;;;;;;16.10;10.30;;;205.10;1843.20;;;;;;4873603;29;20644;-73
2021/01/20 08:06:07;;;;;;;22.42;15.80;;;205.20;1843.20;;;;;;4876366;29;20434;-74
2021/01/20 08:08:48;;;;;;;12.15;8.15;;;205.20;1843.20;;;;;;4874856;29;20044;-74
2021/01/20 08:11:13;;;;;;;8.25;5.07;;;205.30;1843.20;;;;;;4879760;29;20048;-76
2021/01/20 08:13:39;;;;;;;11.07;6.80;;;205.30;1843.20;;;;;;4877325;29;20514;-74
2021/01/20 08:16:08;;;;;;;9.90;6.00;;;205.30;1843.20;;;;;;4875163;29;20032;-73
2021/01/20 08:18:35;;;;;;;11.27;6.40;;;205.20;1868.80;;;;;;4877509;29;20032;-74
2021/01/20 08:21:05;;;;;;;7.95;4.88;;;205.50;1868.80;;;;;;4880231;29;20458;-72
2021/01/20 08:23:57;;;;;;;7.70;4.65;;;205.10;1894.40;;;;;;4877821;29;20036;-71
2021/01/20 08:26:30;;;;;;;7.45;4.63;;;205.20;1894.40;;;;;;4878017;29;20151;-72
2021/01/20 08:29:09;;;;;;;6.07;4.28;;;205.20;1920.00;;;;;;4878774;29;20075;-72
2021/01/20 08:31:36;;;;;;;6.20;4.18;;;205.20;1920.00;;;;;;4878678;29;20877;-72
2021/01/20 08:34:22;;;;;;;8.73;4.68;;;205.30;1920.00;;;;;;4878092;29;20071;-78
2021/01/20 08:37:05;;;;;;;6.97;4.20;;;205.40;1945.60;;;;;;4894631;29;20076;-69
2021/01/20 08:39:32;;;;;;;10.10;4.57;;;205.20;1996.80;;;;;;4903141;29;20080;-73
2021/01/20 08:42:17;;;;;;;7.40;4.03;;;205.20;2022.40;;;;;;4910314;29;20036;-85
2021/01/20 08:45:20;;;;;;;6.20;4.32;;;205.20;2022.40;;;;;;4910521;29;20028;-68
2021/01/20 08:48:06;;;;;;;5.95;3.97;;;205.10;2022.40;;;;;;4912915;29;20386;-68
2021/01/20 08:50:52;;;;;;;6.97;4.20;;;205.10;1996.80;;;;;;4914290;29;20043;-70
2021/01/20 08:53:23;;;;;;;5.80;4.20;;;205.10;1996.80;;;;;;4916027;29;20110;-77
2021/01/20 08:55:51;;;;;;;6.15;4.07;;;205.20;1996.80;;;;;;4917551;29;20035;-74
2021/01/20 08:58:30;;;;;;;5.30;3.83;;;205.10;1996.80;;;;;;4916834;29;20111;-70
2021/01/20 09:00:59;;;;;;;6.47;4.35;;;205.20;1996.80;;;;;;4914128;29;20039;-70
2021/01/20 09:03:32;;;;;;;6.18;4.00;;;205.20;1996.80;;;;;;4914485;29;20509;-70
2021/01/20 09:06:00;;;;;;;10.70;4.53;;;205.20;1996.80;;;;;;4898224;29;20399;-70
2021/01/20 09:08:28;;;;;;;6.78;4.93;;;205.20;1996.80;;;;;;4912299;29;20036;-72
2021/01/20 09:10:55;;;;;;;7.57;4.93;;;205.30;1971.20;;;;;;4914134;29;20108;-71
2021/01/20 09:13:21;;;;;;;18.50;12.18;;;205.30;1971.20;;;;;;4915116;29;20090;-69
2021/01/20 09:15:49;;;;;;;32.03;18.90;;;205.30;1971.20;;;;;;4912351;29;20573;-69
2021/01/20 09:18:15;;;;;;;29.20;19.92;;;205.30;1971.20;;;;;;4916740;29;20028;-69
2021/01/20 09:20:41;;;;;;;23.77;16.67;;;205.20;1996.80;;;;;;4913689;29;20024;-71
2021/01/20 09:23:07;;;;;;;19.10;13.68;;;205.30;1971.20;;;;;;4914283;29;20036;-74
2021/01/20 09:25:34;;;;;;;13.68;7.75;;;205.20;1996.80;;;;;;4916671;29;20036;-70
2021/01/20 09:28:00;;;;;;;15.52;10.05;;;205.20;1971.20;;;;;;4887834;29;20183;-72
2021/01/20 09:30:26;;;;;;;21.13;6.53;;;205.30;1971.20;;;;;;4916921;29;20118;-70
2021/01/20 09:32:52;;;;;;;9.30;6.47;;;205.40;1971.20;;;;;;4912330;29;20025;-72
2021/01/20 09:35:18;;;;;;;12.88;7.72;;;205.50;1920.00;;;;;;4914075;29;20040;-70
2021/01/20 09:37:44;;;;;;;9.40;6.10;;;205.70;1894.40;;;;;;4914218;29;20020;-75
2021/01/20 09:40:12;;;;;;;8.40;6.47;;;230.40;1868.80;;;;;;4914818;29;20188;-73
2021/01/20 09:42:40;;;;;;;9.55;4.72;;;230.50;1843.20;;;;;;4915937;29;20031;-70
2021/01/20 09:45:08;;;;;;;9.90;4.22;;;230.50;1817.60;;;;;;4914640;29;20119;-72
2021/01/20 09:47:46;;;;;;;9.25;4.90;;;230.50;1817.60;;;;;;4915373;29;20039;-72
2021/01/20 09:50:14;;;;;;;7.93;4.32;;;230.60;1817.60;;;;;;4912132;29;20110;-76
2021/01/20 09:52:40;;;;;;;13.40;7.82;;;230.50;1817.60;;;;;;4912771;29;20048;-74
2021/01/20 09:55:07;;;;;;;13.60;8.63;;;230.60;1817.60;;;;;;4912861;29;20034;-77
2021/01/20 09:57:33;;;;;;;7.82;5.60;;;230.60;1817.60;;;;;;4925406;29;20031;-75
2021/01/20 10:00:01;;;;;;;10.73;5.30;;;230.70;1792.00;;;;;;4913475;29;20038;-72
2021/01/20 10:02:26;;;;;;;10.32;5.40;;;230.70;1766.40;;;;;;4916039;29;20436;-72
2021/01/20 10:04:52;;;;;;;8.82;5.28;;;230.80;1740.80;;;;;;4913798;29;20065;-73
2021/01/20 10:07:18;;;;;;;7.93;5.30;;;230.90;1740.80;;;;;;4910645;29;20028;-70
2021/01/20 10:09:43;;;;;;;6.65;3.90;;;231.00;1715.20;;;;;;4915219;29;20036;-71
2021/01/20 10:12:11;;;;;;;9.02;4.70;;;231.10;1664.00;;;;;;4914877;29;20088;-72
2021/01/20 10:14:38;;;;;;;6.50;4.10;;;231.20;1664.00;;;;;;4913525;29;20024;-70
2021/01/20 10:17:04;;;;;;;7.70;4.00;;;256.00;1638.40;;;;;;4914143;29;20463;-74
2021/01/20 10:19:30;;;;;;;6.60;4.13;;;256.20;1638.40;;;;;;4898119;29;20047;-76
2021/01/20 10:21:56;;;;;;;7.38;4.30;;;256.50;1612.80;;;;;;4912716;29;20040;-73
2021/01/20 10:24:21;;;;;;;5.68;4.10;;;256.70;1561.60;;;;;;4915603;29;20063;-71
2021/01/20 10:26:47;;;;;;;17.83;9.63;;;256.80;1561.60;;;;;;4914597;29;20553;-76
2021/01/20 10:29:13;;;;;;;9.10;5.90;;;256.90;1536.00;;;;;;4914631;29;20063;-77
2021/01/20 10:31:40;;;;;;;5.32;4.30;;;281.60;1536.00;;;;;;4911776;29;20020;-74
2021/01/20 10:34:07;;;;;;;7.70;5.15;;;281.70;1536.00;;;;;;4914590;29;20078;-70
2021/01/20 10:36:33;;;;;;;8.10;5.10;;;281.80;1536.00;;;;;;4912148;29;20059;-71
2021/01/20 10:38:59;;;;;;;11.50;5.20;;;281.90;1510.40;;;;;;4914452;29;20435;-78
2021/01/20 10:41:25;;;;;;;6.28;4.57;;;282.10;1510.40;;;;;;4917354;29;20042;-79
2021/01/20 10:43:53;;;;;;;5.50;4.07;;;282.20;1484.80;;;;;;4915621;29;20107;-70
2021/01/20 10:46:25;;;;;;;5.38;3.92;;;282.30;1459.20;;;;;;4915659;29;20024;-71
2021/01/20 10:48:54;;;;;;;4.82;3.95;;;282.30;1459.20;;;;;;4915104;29;20054;-72
2021/01/20 10:51:21;;;;;;;5.25;3.92;;;282.30;1459.20;;;;;;4913453;29;20031;-71
2021/01/20 10:53:47;;;;;;;5.30;3.50;;;282.30;1459.20;;;;;;4913265;29;20071;-73
2021/01/20 10:56:13;;;;;;;7.43;3.60;;;282.20;1459.20;;;;;;4913346;29;20485;-68
2021/01/20 10:58:39;;;;;;;7.07;4.53;;;282.20;1484.80;;;;;;4904371;29;20542;-68
2021/01/20 11:01:04;;;;;;;5.60;3.60;;;282.30;1484.80;;;;;;4901289;29;20202;-72
2021/01/20 11:03:30;;;;;;;11.40;4.55;;;282.50;1459.20;;;;;;4910567;29;20088;-68
2021/01/20 11:05:56;;;;;;;7.55;4.28;;;282.50;1459.20;;;;;;4911595;29;20043;-71
2021/01/20 11:08:22;;;;;;;7.60;3.55;;;282.50;1459.20;;;;;;4909486;29;20067;-68
2021/01/20 11:10:48;;;;;;;5.68;3.90;;;282.40;1433.60;;;;;;4913285;29;20056;-68
2021/01/20 11:13:14;;;;;;;8.25;4.70;;;282.40;1459.20;;;;;;4907221;29;20065;-71
2021/01/20 11:15:47;;;;;;;6.97;4.53;;;282.40;1459.20;;;;;;4910826;29;20031;-71
2021/01/20 11:18:17;;;;;;;7.47;4.40;;;282.40;1459.20;;;;;;4912809;29;20506;-69
2021/01/20 11:20:44;;;;;;;5.57;3.78;;;282.50;1459.20;;;;;;4910978;29;20151;-82
2021/01/20 11:23:11;;;;;;;6.05;4.03;;;282.40;1433.60;;;;;;4912835;29;20614;-69
2021/01/20 11:25:44;;;;;;;21.33;14.40;;;282.50;1459.20;;;;;;4912490;29;20036;-70
2021/01/20 11:28:10;;;;;;;27.30;18.38;;;307.20;1484.80;;;;;;4914807;29;20116;-70
2021/01/20 11:30:35;;;;;;;15.85;11.88;;;282.50;1433.60;;;;;;4914324;29;20130;-71
2021/01/20 11:33:01;;;;;;;8.10;5.65;;;282.30;1433.60;;;;;;4904169;29;20067;-70
2021/01/20 11:35:27;;;;;;;11.23;7.05;;;282.40;1433.60;;;;;;4910842;29;20367;-69
2021/01/20 11:37:59;;;;;;;9.55;5.32;;;282.30;1459.20;;;;;;4911105;29;20060;-69
2021/01/20 11:40:29;;;;;;;6.15;4.35;;;282.40;1459.20;;;;;;4914970;29;20059;-79
2021/01/20 11:42:58;;;;;;;7.20;4.85;;;282.30;1433.60;;;;;;4914807;29;20028;-77
2021/01/20 11:45:34;;;;;;;8.52;4.72;;;282.40;1459.20;;;;;;4904263;29;20048;-78
2021/01/20 11:48:01;;;;;;;10.32;6.00;;;282.40;1433.60;;;;;;4916828;29;20020;-74
2021/01/20 11:50:27;;;;;;;9.85;6.07;;;282.30;1459.20;;;;;;4916441;29;20040;-71
2021/01/20 11:52:54;;;;;;;7.03;4.95;;;282.20;1459.20;;;;;;4917411;29;20529;-74
2021/01/20 11:55:22;;;;;;;12.00;6.07;;;282.10;1459.20;;;;;;4916169;29;20024;-73
2021/01/20 11:57:48;;;;;;;11.43;6.60;;;282.10;1459.20;;;;;;4917346;29;20032;-72
2021/01/20 12:00:15;;;;;;;16.60;7.38;;;282.20;1484.80;;;;;;4913660;29;20506;-73
2021/01/20 12:02:41;;;;;;;10.23;6.90;;;282.20;1484.80;;;;;;4917235;29;20024;-73
2021/01/20 12:05:11;;;;;;;13.80;8.50;;;282.30;1459.20;;;;;;4916467;29;20028;-73
2021/01/20 12:07:38;;;;;;;15.25;8.80;;;282.20;1459.20;;;;;;4918327;29;20031;-74
2021/01/20 12:10:05;;;;;;;14.80;9.43;;;282.20;1459.20;;;;;;4916401;29;20036;-70
2021/01/20 12:12:32;;;;;;;8.35;5.80;;;307.20;1484.80;;;;;;4915102;29;20032;-70
2021/01/20 12:14:57;;;;;;;17.17;7.07;;;282.30;1459.20;;;;;;4915067;29;20504;-71
2021/01/20 12:17:23;;;;;;;10.60;6.68;;;282.30;1459.20;;;;;;4915963;29;20040;-70
2021/01/20 12:19:49;;;;;;;12.27;7.22;;;282.20;1459.20;;;;;;4908606;29;20028;-70
2021/01/20 12:22:15;;;;;;;9.65;5.90;;;282.30;1484.80;;;;;;4913388;29;20079;-69
2021/01/20 12:24:40;;;;;;;10.38;5.80;;;282.30;1484.80;;;;;;4914952;29;20031;-72